Time;durP1;ratioP1;P1;durP2;ratioP2;P2;SDS_P1;SDS_P2;PMS_P1;PMS_P2;Temp;Humidity;BMP_temperature;BMP_pressure;BME280_temperature;BME280_humidity;BME280_pressure;Samples;Min_cycle;Max_cycle;Signal;HPM_P1;HPM_P2
2022/02/19 00:00:23;;;;;;;44.88;24.90;;;;;;;10.69;93.54;100600.06;5055413;28;20038;-82
2022/02/19 00:02:50;;;;;;;44.15;24.70;;;;;;;10.71;94.42;100614.44;5056771;28;20075;-82
2022/02/19 00:05:15;;;;;;;35.35;24.98;;;;;;;10.64;94.11;100615.03;5056144;28;20037;-82
2022/02/19 00:07:41;;;;;;;48.20;25.25;;;;;;;10.58;94.28;100629.53;5056510;28;20064;-82
2022/02/19 00:10:07;;;;;;;45.55;28.92;;;;;;;10.56;94.82;100617.97;5056555;28;20040;-82
2022/02/19 00:12:38;;;;;;;51.10;28.88;;;;;;;10.51;95.01;100624.59;5054069;28;20033;-82
2022/02/19 00:15:04;;;;;;;52.10;29.67;;;;;;;10.44;95.92;100622.41;5056215;28;20089;-81
2022/02/19 00:17:30;;;;;;;58.83;31.02;;;;;;;10.49;95.85;100630.50;5057512;28;20013;-82
2022/02/19 00:19:56;;;;;;;40.85;28.88;;;;;;;10.45;95.49;100624.03;5056444;28;20101;-81
2022/02/19 00:22:24;;;;;;;49.33;28.50;;;;;;;10.48;95.28;100639.19;5056917;28;20036;-82
2022/02/19 00:24:50;;;;;;;48.00;29.48;;;;;;;10.53;94.24;100635.34;5057434;28;20076;-82
2022/02/19 00:27:16;;;;;;;53.13;27.20;;;;;;;10.29;94.03;100609.22;5057812;28;20034;-82
2022/02/19 00:29:42;;;;;;;49.00;25.17;;;;;;;10.36;93.02;100625.31;5058196;28;20097;-82
2022/02/19 00:32:08;;;;;;;39.00;23.45;;;;;;;10.33;92.29;100628.78;5058406;28;20041;-82
2022/02/19 00:34:33;;;;;;;42.03;20.92;;;;;;;10.35;92.34;100624.50;5057590;28;20088;-82
2022/02/19 00:37:00;;;;;;;38.50;19.73;;;;;;;10.23;91.43;100618.94;5055295;28;20037;-82
2022/02/19 00:39:29;;;;;;;32.05;18.15;;;;;;;10.15;91.58;100622.63;5055300;28;20049;-82
2022/02/19 00:41:58;;;;;;;27.95;16.67;;;;;;;10.08;91.31;100616.88;5055436;28;20093;-83
2022/02/19 00:44:27;;;;;;;29.48;17.40;;;;;;;10.08;91.80;100630.75;5055127;28;20068;-82
2022/02/19 00:46:52;;;;;;;33.25;18.67;;;;;;;10.06;91.20;100616.38;5056327;28;20056;-82
2022/02/19 00:49:21;;;;;;;34.40;18.52;;;;;;;10.07;91.76;100620.81;5054976;28;20037;-82
2022/02/19 00:51:46;;;;;;;39.53;20.25;;;;;;;10.12;91.90;100620.53;5056344;28;20022;-83
2022/02/19 00:54:14;;;;;;;29.92;18.73;;;;;;;10.03;91.34;100622.66;5055012;28;20055;-82
2022/02/19 00:56:40;;;;;;;38.22;20.13;;;;;;;9.95;91.63;100610.47;5055436;28;20124;-83
2022/02/19 00:59:05;;;;;;;39.38;20.35;;;;;;;9.94;92.11;100620.78;5054872;28;20030;-82
2022/02/19 01:01:31;;;;;;;38.00;19.10;;;;;;;9.89;92.07;100618.25;5054980;28;20056;-82
2022/02/19 01:03:59;;;;;;;37.28;19.65;;;;;;;9.92;92.34;100622.31;5054242;28;20025;-82
2022/02/19 01:06:27;;;;;;;43.83;21.08;;;;;;;10.03;91.18;100623.47;5054377;28;20120;-82
2022/02/19 01:08:55;;;;;;;33.70;20.42;;;;;;;10.03;90.52;100617.09;5054042;28;20037;-82
2022/02/19 01:11:21;;;;;;;42.05;19.10;;;;;;;10.03;90.76;100608.75;5054106;28;20063;-82
2022/02/19 01:13:48;;;;;;;32.53;18.48;;;;;;;9.87;90.25;100600.31;5053066;28;20041;-82
2022/02/19 01:16:17;;;;;;;35.50;19.95;;;;;;;9.79;91.56;100590.91;5053471;28;20032;-82
2022/02/19 01:18:45;;;;;;;31.92;18.77;;;;;;;9.74;92.39;100593.13;5053404;28;20029;-82
2022/02/19 01:21:10;;;;;;;36.22;20.35;;;;;;;9.78;92.96;100603.19;5052780;28;20136;-82
2022/02/19 01:23:39;;;;;;;35.58;20.38;;;;;;;9.75;92.10;100605.84;5052029;28;20052;-82
2022/02/19 01:26:05;;;;;;;33.20;20.65;;;;;;;9.80;92.83;100603.69;5052990;28;20021;-82
2022/02/19 01:28:34;;;;;;;35.83;21.65;;;;;;;9.81;92.49;100608.06;5052672;28;20064;-82
2022/02/19 01:31:00;;;;;;;39.17;21.05;;;;;;;9.57;92.94;100563.59;5053646;28;20400;-82
2022/02/19 01:33:28;;;;;;;30.83;20.90;;;;;;;9.75;93.04;100581.69;5052818;28;20006;-83
2022/02/19 01:35:53;;;;;;;50.38;22.08;;;;;;;9.74;92.98;100587.56;5053963;28;20029;-82
2022/02/19 01:38:19;;;;;;;39.80;20.08;;;;;;;9.70;92.84;100579.13;5052262;28;20039;-81
2022/02/19 01:40:45;;;;;;;39.63;18.27;;;;;;;9.74;92.62;100585.59;5052668;28;20024;-82
2022/02/19 01:43:11;;;;;;;34.38;20.25;;;;;;;9.82;91.27;100578.31;5052207;28;20037;-81
2022/02/19 01:45:37;;;;;;;31.15;18.30;;;;;;;9.79;90.98;100574.25;5052545;28;20022;-81
2022/02/19 01:48:03;;;;;;;36.95;19.27;;;;;;;9.70;90.79;100571.59;5052071;28;20037;-83
2022/02/19 01:50:29;;;;;;;45.00;18.25;;;;;;;9.60;91.69;100568.47;5051021;28;20114;-82
2022/02/19 01:52:55;;;;;;;32.47;17.92;;;;;;;9.43;92.46;100556.44;5051802;28;20052;-82
2022/02/19 01:55:20;;;;;;;26.95;16.67;;;;;;;9.58;93.08;100562.44;5052014;28;20025;-82
2022/02/19 01:57:47;;;;;;;27.30;15.27;;;;;;;9.57;92.96;100553.28;5051588;28;20060;-82
2022/02/19 02:00:14;;;;;;;29.42;15.82;;;;;;;9.54;93.15;100562.34;5052405;28;20060;-82
2022/02/19 02:02:42;;;;;;;29.70;15.35;;;;;;;9.55;93.02;100560.38;5051944;28;20032;-81
2022/02/19 02:05:08;;;;;;;20.98;14.70;;;;;;;9.54;92.78;100565.13;5052085;28;20029;-82
2022/02/19 02:07:34;;;;;;;35.80;17.58;;;;;;;9.45;93.07;100562.44;5050595;28;20025;-82
2022/02/19 02:10:01;;;;;;;27.77;15.75;;;;;;;9.44;92.93;100560.81;5050879;28;20021;-82
2022/02/19 02:12:26;;;;;;;22.58;15.00;;;;;;;9.39;93.25;100568.56;5051958;28;20097;-82
2022/02/19 02:14:52;;;;;;;21.90;14.18;;;;;;;9.32;93.22;100562.75;5050523;28;20025;-82
2022/02/19 02:17:20;;;;;;;28.33;15.07;;;;;;;9.34;93.75;100563.25;5050801;28;20026;-82
2022/02/19 02:19:46;;;;;;;26.70;14.88;;;;;;;9.30;93.45;100557.56;5054388;28;20060;-82
2022/02/19 02:22:14;;;;;;;22.17;13.98;;;;;;;9.26;93.46;100556.63;5054094;28;20096;-82
2022/02/19 02:24:43;;;;;;;29.23;15.88;;;;;;;9.22;93.52;100563.22;5055105;28;20040;-82
2022/02/19 02:27:12;;;;;;;20.15;13.38;;;;;;;9.17;93.88;100555.94;5054578;28;20021;-82
2022/02/19 02:29:47;;;;;;;22.65;12.68;;;;;;;9.15;94.13;100561.81;5055520;28;20029;-83
2022/02/19 02:32:13;;;;;;;21.55;12.63;;;;;;;9.08;94.12;100544.09;5055181;28;20032;-82
2022/02/19 02:34:50;;;;;;;25.98;12.93;;;;;;;9.06;94.19;100538.09;5053805;28;20060;-82
2022/02/19 02:37:18;;;;;;;20.45;12.93;;;;;;;9.06;94.02;100543.66;5075416;28;20029;-82
2022/02/19 02:39:46;;;;;;;30.85;12.50;;;;;;;9.16;94.32;100551.50;5056396;28;20091;-82
2022/02/19 02:42:14;;;;;;;23.30;12.25;;;;;;;9.12;93.67;100545.84;5058293;28;20096;-81
2022/02/19 02:44:40;;;;;;;24.05;12.35;;;;;;;9.10;93.17;100537.03;5058223;28;20025;-82
2022/02/19 02:47:07;;;;;;;27.83;14.13;;;;;;;9.05;93.06;100542.81;5057662;28;20032;-82
2022/02/19 02:49:33;;;;;;;26.00;15.13;;;;;;;9.00;93.81;100536.69;5075057;28;20065;-82
2022/02/19 02:52:09;;;;;;;27.83;15.68;;;;;;;9.07;94.23;100537.75;5058108;28;20036;-82
2022/02/19 02:54:36;;;;;;;29.67;16.80;;;;;;;9.08;93.38;100535.78;5057250;28;20032;-82
2022/02/19 02:57:02;;;;;;;25.23;14.77;;;;;;;9.00;93.48;100543.06;5056896;28;20035;-82
2022/02/19 02:59:28;;;;;;;25.17;13.82;;;;;;;9.00;93.96;100536.69;5057340;28;20025;-82
2022/02/19 03:01:54;;;;;;;32.15;14.82;;;;;;;9.00;94.04;100526.41;5056737;28;20051;-82
2022/02/19 03:04:22;;;;;;;29.00;17.17;;;;;;;8.92;94.07;100530.88;5056451;28;20082;-82
2022/02/19 03:06:48;;;;;;;46.42;30.48;;;;;;;8.86;94.26;100521.16;5056959;28;20033;-82
2022/02/19 03:09:14;;;;;;;55.80;28.70;;;;;;;8.88;94.99;100523.59;5056936;28;20033;-82
2022/02/19 03:11:39;;;;;;;68.90;38.00;;;;;;;8.88;94.99;100532.72;5056167;28;20032;-82
2022/02/19 03:14:10;;;;;;;95.63;56.15;;;;;;;8.81;95.79;100518.59;5057385;28;20055;-82
2022/02/19 03:16:39;;;;;;;78.90;46.60;;;;;;;8.86;95.66;100526.72;5055883;28;20029;-82
2022/02/19 03:19:08;;;;;;;42.05;26.63;;;;;;;8.83;95.24;100526.56;5055642;28;20029;-82
2022/02/19 03:21:36;;;;;;;67.28;42.15;;;;;;;8.77;95.19;100522.41;5053003;28;20063;-82
2022/02/19 03:24:05;;;;;;;89.80;58.13;;;;;;;8.78;95.04;100527.59;5055048;28;20037;-82
2022/02/19 03:26:30;;;;;;;88.95;55.70;;;;;;;8.79;95.79;100529.25;5038717;28;20064;-82
2022/02/19 03:28:58;;;;;;;75.18;48.08;;;;;;;8.82;95.29;100530.50;5052364;28;20029;-82
2022/02/19 03:31:27;;;;;;;68.00;39.72;;;;;;;8.72;95.70;100528.97;5051959;28;20021;-82
2022/02/19 03:33:55;;;;;;;86.72;54.67;;;;;;;8.70;96.43;100524.94;5052124;28;20038;-82
2022/02/19 03:36:23;;;;;;;118.45;71.32;;;;;;;8.73;96.56;100527.00;5052282;28;20021;-81
2022/02/19 03:38:51;;;;;;;103.18;62.40;;;;;;;8.78;97.08;100527.59;5051753;28;20056;-81
2022/02/19 03:41:20;;;;;;;132.38;76.85;;;;;;;8.77;96.37;100534.31;5051667;28;20029;-81
2022/02/19 03:43:45;;;;;;;141.63;77.55;;;;;;;8.83;97.27;100544.03;5051215;28;20022;-81
2022/02/19 03:46:11;;;;;;;131.02;73.43;;;;;;;8.75;97.10;100536.63;5049127;28;20026;-81
2022/02/19 03:48:39;;;;;;;109.85;60.17;;;;;;;8.78;97.55;100538.69;5047891;28;20101;-81
2022/02/19 03:51:05;;;;;;;125.15;59.05;;;;;;;8.76;97.70;100529.13;5051960;28;20032;-80
2022/02/19 03:53:36;;;;;;;105.97;54.92;;;;;;;8.67;97.74;100523.63;5051212;28;20026;-81
2022/02/19 03:56:04;;;;;;;118.20;58.38;;;;;;;8.77;97.95;100536.28;5047583;28;20033;-81
2022/02/19 03:58:30;;;;;;;78.78;40.03;;;;;;;8.75;97.80;100531.06;5052658;28;20097;-82
2022/02/19 04:00:55;;;;;;;69.10;35.78;;;;;;;8.76;97.98;100531.88;5050812;28;20056;-82
2022/02/19 04:03:21;;;;;;;70.18;34.50;;;;;;;8.70;98.04;100536.84;5051192;28;20056;-82
2022/02/19 04:05:47;;;;;;;77.90;36.35;;;;;;;8.71;98.13;100530.13;5051413;28;20037;-81
2022/02/19 04:08:13;;;;;;;51.35;26.50;;;;;;;8.77;98.37;100545.41;5051381;28;20028;-81
2022/02/19 04:10:39;;;;;;;52.40;26.42;;;;;;;8.67;97.97;100540.28;5047642;28;20037;-81
2022/02/19 04:13:05;;;;;;;66.43;30.15;;;;;;;8.75;98.16;100536.63;5049271;28;20041;-81
2022/02/19 04:15:31;;;;;;;65.78;33.33;;;;;;;8.65;97.52;100534.28;5049058;28;20091;-81
2022/02/19 04:17:58;;;;;;;68.07;37.10;;;;;;;8.76;98.15;100543.78;5050455;28;20029;-82
2022/02/19 04:20:26;;;;;;;73.32;36.90;;;;;;;8.67;97.59;100540.28;5050556;28;20045;-81
2022/02/19 04:22:52;;;;;;;65.82;36.90;;;;;;;8.64;98.01;100538.22;5050716;28;20026;-82
2022/02/19 04:25:21;;;;;;;75.57;40.13;;;;;;;8.57;97.65;100535.16;5048969;28;20063;-82
2022/02/19 04:27:46;;;;;;;75.03;37.50;;;;;;;8.57;98.02;100532.38;5052189;28;20056;-81
2022/02/19 04:30:12;;;;;;;94.65;44.65;;;;;;;8.56;97.54;100539.09;5051213;28;20037;-81
2022/02/19 04:32:38;;;;;;;66.97;32.97;;;;;;;8.54;97.31;100533.09;5051226;28;20104;-81
2022/02/19 04:35:07;;;;;;;51.00;25.75;;;;;;;8.54;97.03;100533.09;5051064;28;20036;-81
2022/02/19 04:37:32;;;;;;;62.95;34.38;;;;;;;8.42;96.75;100531.06;5048967;28;20037;-82
2022/02/19 04:40:00;;;;;;;75.63;42.00;;;;;;;8.46;97.25;100533.97;5051125;28;20097;-82
2022/02/19 04:42:25;;;;;;;61.83;31.80;;;;;;;8.39;96.40;100523.41;5050842;28;20124;-81
2022/02/19 04:44:51;;;;;;;49.67;27.38;;;;;;;8.40;96.10;100527.81;5050076;28;20033;-82
2022/02/19 04:47:16;;;;;;;29.85;16.70;;;;;;;8.34;95.48;100529.94;5050934;28;20029;-82
2022/02/19 04:49:45;;;;;;;32.38;16.48;;;;;;;8.22;95.43;100532.66;5050975;28;20037;-82
2022/02/19 04:52:13;;;;;;;34.45;18.83;;;;;;;8.29;96.87;100530.16;5051387;28;20053;-82
2022/02/19 04:54:39;;;;;;;31.88;16.90;;;;;;;8.37;96.45;100532.09;5050273;28;20029;-82
2022/02/19 04:57:07;;;;;;;23.92;12.98;;;;;;;8.35;96.04;100530.75;5050081;28;20032;-82
2022/02/19 04:59:36;;;;;;;20.42;11.65;;;;;;;8.41;95.94;100540.53;5050030;28;20033;-81
2022/02/19 05:02:01;;;;;;;32.67;16.77;;;;;;;8.38;96.81;100547.56;5050093;28;20124;-82
2022/02/19 05:04:29;;;;;;;37.95;16.42;;;;;;;8.42;96.81;100546.91;5048825;28;20030;-82
2022/02/19 05:06:57;;;;;;;20.73;13.95;;;;;;;8.36;96.47;100552.66;5049161;28;20037;-82
2022/02/19 05:09:22;;;;;;;33.38;13.52;;;;;;;8.29;96.71;100548.75;5049179;28;20041;-81
2022/02/19 05:11:48;;;;;;;46.75;15.10;;;;;;;8.28;97.34;100555.47;5049601;28;20037;-82
2022/02/19 05:14:13;;;;;;;21.90;14.38;;;;;;;8.31;97.58;100554.75;5049577;28;20120;-82
2022/02/19 05:16:39;;;;;;;32.28;15.05;;;;;;;8.24;97.46;100544.22;5049476;28;20032;-81
2022/02/19 05:19:08;;;;;;;33.50;18.77;;;;;;;8.28;98.02;100539.63;5048721;28;20040;-81
2022/02/19 05:21:36;;;;;;;26.95;13.65;;;;;;;8.30;97.64;100540.09;5047179;28;20072;-82
2022/02/19 05:24:02;;;;;;;25.05;13.68;;;;;;;8.32;96.86;100557.22;5049744;28;20052;-82
2022/02/19 05:26:27;;;;;;;24.10;12.43;;;;;;;8.18;97.14;100551.13;5048246;28;20029;-82
2022/02/19 05:28:55;;;;;;;23.73;12.73;;;;;;;8.17;97.58;100548.69;5044064;28;20037;-81
2022/02/19 05:31:21;;;;;;;29.98;13.45;;;;;;;8.20;97.96;100550.78;5044479;28;20036;-82
2022/02/19 05:33:49;;;;;;;17.83;12.75;;;;;;;8.15;97.50;100551.81;5046262;28;20026;-81
2022/02/19 05:36:15;;;;;;;30.13;12.77;;;;;;;8.27;97.23;100554.66;5046467;28;20495;-82
2022/02/19 05:38:41;;;;;;;24.40;13.15;;;;;;;8.19;96.31;100558.28;5050434;28;20040;-82
2022/02/19 05:41:06;;;;;;;25.50;13.02;;;;;;;8.13;96.69;100559.63;5046688;28;20060;-82
2022/02/19 05:43:35;;;;;;;19.58;10.98;;;;;;;8.14;96.89;100555.72;5046988;28;20072;-82
2022/02/19 05:46:03;;;;;;;21.38;11.25;;;;;;;8.15;97.82;100551.81;5046982;28;20089;-81
2022/02/19 05:48:32;;;;;;;18.40;11.05;;;;;;;8.20;97.56;100565.44;5047873;28;20476;-82
2022/02/19 05:50:59;;;;;;;18.70;10.85;;;;;;;8.26;96.56;100569.66;5047705;28;20032;-81
2022/02/19 05:53:24;;;;;;;25.73;11.32;;;;;;;8.19;96.34;100569.38;5047695;28;20105;-82
2022/02/19 05:55:50;;;;;;;18.90;11.65;;;;;;;8.12;96.67;100574.66;5046277;28;20476;-81
2022/02/19 05:58:19;;;;;;;26.67;11.10;;;;;;;8.14;97.46;100583.44;5045465;28;20049;-82
2022/02/19 06:00:47;;;;;;;22.48;12.30;;;;;;;8.21;97.45;100586.50;5045915;28;20160;-81
2022/02/19 06:03:15;;;;;;;28.08;13.57;;;;;;;8.27;97.40;100590.69;5046126;28;20118;-82
2022/02/19 06:05:43;;;;;;;21.20;12.35;;;;;;;8.30;97.52;100589.19;5045063;28;20029;-81
2022/02/19 06:08:12;;;;;;;31.63;16.52;;;;;;;8.44;96.98;100587.00;5046305;28;20037;-82
2022/02/19 06:10:40;;;;;;;27.73;16.05;;;;;;;8.69;96.57;100596.25;5047582;28;20030;-81
2022/02/19 06:13:05;;;;;;;23.05;13.65;;;;;;;9.04;94.91;100604.22;5052449;28;20112;-81
2022/02/19 06:15:32;;;;;;;28.23;14.13;;;;;;;9.34;92.76;100600.16;5050988;28;20021;-81
2022/02/19 06:18:02;;;;;;;38.05;14.40;;;;;;;9.82;90.30;100604.13;5050702;28;20104;-82
2022/02/19 06:20:30;;;;;;;33.70;14.10;;;;;;;10.20;87.01;100602.94;5051277;28;20061;-81
2022/02/19 06:22:59;;;;;;;26.77;13.00;;;;;;;10.67;85.90;100602.41;5053844;28;20056;-81
2022/02/19 06:25:25;;;;;;;31.20;13.13;;;;;;;11.14;83.14;100604.50;5055607;28;20092;-81
2022/02/19 06:27:50;;;;;;;24.40;12.02;;;;;;;11.58;79.69;100612.81;5055899;28;20083;-82
2022/02/19 06:30:16;;;;;;;23.55;10.90;;;;;;;11.96;77.17;100607.44;5057823;28;20033;-82
2022/02/19 06:32:45;;;;;;;18.30;10.90;;;;;;;12.45;76.16;100604.16;5060078;28;20056;-82
2022/02/19 06:35:11;;;;;;;27.00;12.35;;;;;;;12.90;74.11;100608.31;5060140;28;20030;-82
2022/02/19 06:37:41;;;;;;;101.95;46.85;;;;;;;13.38;72.38;100608.84;5060086;28;20036;-83
2022/02/19 06:40:08;;;;;;;304.63;131.85;;;;;;;13.87;69.46;100596.91;5059900;28;20048;-82
2022/02/19 06:42:35;;;;;;;322.00;142.25;;;;;;;14.46;67.22;100600.16;5061106;28;20048;-81
2022/02/19 06:45:01;;;;;;;241.25;115.28;;;;;;;14.88;65.30;100599.94;5060419;28;20032;-81
2022/02/19 06:47:28;;;;;;;156.50;76.53;;;;;;;15.33;62.38;100598.03;5061133;28;20033;-82
2022/02/19 06:49:53;;;;;;;79.93;40.95;;;;;;;15.83;61.60;100599.31;5061966;28;20080;-82
2022/02/19 06:52:19;;;;;;;41.70;22.08;;;;;;;16.35;60.12;100604.88;5061788;28;20018;-81
2022/02/19 06:54:44;;;;;;;32.70;15.93;;;;;;;16.75;58.21;100599.13;5053183;28;20036;-81
2022/02/19 06:57:14;;;;;;;38.85;16.67;;;;;;;17.39;57.43;100603.31;5042219;28;20029;-83
2022/02/19 06:59:43;;;;;;;24.80;13.98;;;;;;;17.69;55.95;100612.22;5037071;28;20029;-85
2022/02/19 07:02:08;;;;;;;28.35;13.68;;;;;;;17.90;54.61;100608.63;5036181;28;20040;-84
2022/02/19 07:04:34;;;;;;;19.90;12.73;;;;;;;18.24;53.95;100617.44;5036398;28;20065;-86
2022/02/19 07:07:00;;;;;;;22.80;12.52;;;;;;;18.61;52.67;100621.78;5035510;28;20033;-86
2022/02/19 07:09:26;;;;;;;25.15;12.70;;;;;;;18.96;53.20;100622.88;5035532;28;20029;-86
2022/02/19 07:11:57;;;;;;;30.88;13.02;;;;;;;19.12;52.31;100628.84;5035417;28;20574;-85
2022/02/19 07:14:23;;;;;;;25.88;14.20;;;;;;;19.01;52.61;100628.09;5035678;28;20033;-86
2022/02/19 07:16:52;;;;;;;29.17;14.48;;;;;;;18.88;53.39;100624.94;5036569;28;20079;-86
2022/02/19 07:19:20;;;;;;;27.67;13.95;;;;;;;18.93;53.28;100637.81;5035356;28;20108;-85
2022/02/19 07:21:49;;;;;;;27.08;17.05;;;;;;;19.02;52.72;100644.63;5034149;28;20080;-86
2022/02/19 07:24:14;;;;;;;18.73;12.20;;;;;;;19.04;52.20;100638.56;5035923;28;20049;-86
2022/02/19 07:26:42;;;;;;;26.95;14.55;;;;;;;18.76;52.39;100636.66;5034777;28;20472;-86
2022/02/19 07:29:08;;;;;;;28.88;13.65;;;;;;;18.41;54.26;100646.78;5035562;28;20087;-86
2022/02/19 07:31:34;;;;;;;18.73;12.75;;;;;;;18.89;53.47;100643.44;5035142;28;20457;-86
2022/02/19 07:34:00;;;;;;;18.85;12.38;;;;;;;17.94;54.99;100636.75;5034943;28;20067;-86
2022/02/19 07:36:25;;;;;;;25.95;13.23;;;;;;;18.10;55.36;100636.34;5035251;28;20053;-86
2022/02/19 07:38:51;;;;;;;28.52;18.48;;;;;;;18.34;54.50;100632.72;5035043;28;20472;-86
2022/02/19 07:41:17;;;;;;;31.23;16.25;;;;;;;17.74;56.00;100634.34;5034684;28;20361;-86
2022/02/19 07:43:45;;;;;;;20.45;12.73;;;;;;;17.90;56.53;100638.78;5034620;28;20065;-85
2022/02/19 07:46:11;;;;;;;22.10;13.73;;;;;;;18.02;54.31;100627.13;5034564;28;20064;-86
2022/02/19 07:48:37;;;;;;;24.00;14.20;;;;;;;17.79;55.93;100628.34;5034879;28;20053;-86
2022/02/19 07:59:16;;;;;;;20.75;11.10;;;;;;;16.81;59.02;100629.66;5036194;28;20047;-86
2022/02/19 08:01:45;;;;;;;23.15;13.30;;;;;;;16.93;56.96;100637.72;5034116;28;20037;-86
2022/02/19 08:04:11;;;;;;;20.70;12.13;;;;;;;17.62;56.11;100643.13;5034309;28;20040;-86
2022/02/19 08:06:36;;;;;;;28.83;13.55;;;;;;;17.71;55.63;100631.50;5034156;28;20034;-86
2022/02/19 08:09:02;;;;;;;23.88;10.52;;;;;;;17.67;56.22;100633.50;5034241;28;20025;-86
2022/02/19 08:11:27;;;;;;;20.52;12.82;;;;;;;18.08;55.12;100627.50;5034182;28;20112;-85
2022/02/19 08:13:53;;;;;;;23.10;11.80;;;;;;;18.90;52.72;100625.31;5034330;28;20069;-84
2022/02/19 08:16:19;;;;;;;31.83;14.25;;;;;;;18.65;52.87;100630.22;5033691;28;20029;-85
2022/02/19 08:18:47;;;;;;;18.15;13.35;;;;;;;19.28;52.36;100629.19;5033942;28;20029;-85
2022/02/19 08:21:13;;;;;;;24.75;12.13;;;;;;;19.56;49.13;100625.38;5033517;28;20103;-85
2022/02/19 08:23:39;;;;;;;17.75;9.75;;;;;;;19.32;50.71;100632.75;5034239;28;20030;-83
2022/02/19 08:26:04;;;;;;;17.75;10.48;;;;;;;19.47;50.58;100632.69;5033630;28;20026;-83
2022/02/19 08:28:30;;;;;;;20.08;11.10;;;;;;;19.47;50.53;100636.31;5033718;28;20030;-84
2022/02/19 08:30:56;;;;;;;17.88;9.43;;;;;;;19.12;50.87;100637.31;5034998;28;20116;-83
2022/02/19 08:33:21;;;;;;;12.30;7.43;;;;;;;18.64;51.56;100637.84;5032867;28;20030;-83
2022/02/19 08:35:47;;;;;;;17.55;9.00;;;;;;;18.27;52.36;100629.91;5033725;28;20025;-84
2022/02/19 08:38:12;;;;;;;15.27;8.35;;;;;;;18.25;52.38;100624.66;5033836;28;20468;-86
2022/02/19 08:40:40;;;;;;;18.65;6.43;;;;;;;18.47;51.26;100624.63;5033483;28;20041;-86
2022/02/19 08:43:06;;;;;;;10.23;5.53;;;;;;;18.67;50.78;100637.06;5033785;28;20061;-85
2022/02/19 08:45:32;;;;;;;16.83;7.78;;;;;;;18.59;51.62;100632.66;5035150;28;20403;-86
2022/02/19 08:48:04;;;;;;;12.02;6.95;;;;;;;18.41;51.98;100632.69;5034807;28;20029;-84
2022/02/19 08:50:35;;;;;;;11.93;5.43;;;;;;;18.32;50.60;100637.94;5033433;28;20025;-84
2022/02/19 08:53:01;;;;;;;11.40;6.65;;;;;;;18.52;50.82;100624.22;5033283;28;20091;-84
2022/02/19 08:55:27;;;;;;;16.40;8.20;;;;;;;17.93;53.17;100626.72;5033145;28;20128;-86
2022/02/19 08:57:53;;;;;;;10.43;6.47;;;;;;;18.54;50.80;100630.25;5033437;28;20065;-83
2022/02/19 09:00:19;;;;;;;13.18;6.80;;;;;;;18.88;50.39;100618.50;5033346;28;20555;-84
2022/02/19 09:02:45;;;;;;;13.10;6.95;;;;;;;18.94;50.23;100620.47;5033103;28;20116;-83
2022/02/19 09:05:13;;;;;;;14.23;7.65;;;;;;;18.10;51.47;100631.53;5033230;28;20183;-86
2022/02/19 09:07:42;;;;;;;17.73;6.88;;;;;;;17.75;52.87;100633.16;5041159;28;20010;-81
2022/02/19 09:10:12;;;;;;;15.45;7.68;;;;;;;18.26;51.60;100633.91;5051679;28;20103;-83
2022/02/19 09:12:46;;;;;;;14.18;8.25;;;;;;;18.21;51.77;100632.31;5034284;28;20473;-80
2022/02/19 09:15:15;;;;;;;15.68;6.60;;;;;;;18.75;50.69;100633.03;5034503;28;20124;-85
2022/02/19 09:17:44;;;;;;;12.02;6.35;;;;;;;18.53;50.67;100634.28;5033404;28;20069;-85
2022/02/19 09:20:13;;;;;;;15.80;7.72;;;;;;;19.33;48.94;100633.56;5038378;28;20148;-84
2022/02/19 09:22:39;;;;;;;18.15;8.57;;;;;;;18.67;50.01;100637.06;5060986;28;20025;-80
2022/02/19 09:25:11;;;;;;;38.42;27.10;;;;;;;19.02;49.07;100638.19;5061124;28;20052;-81
2022/02/19 09:27:37;;;;;;;16.27;10.57;;;;;;;19.03;48.43;100648.25;5037655;28;20085;-84
2022/02/19 09:30:04;;;;;;;12.65;7.70;;;;;;;19.31;48.76;100647.28;5036393;28;20032;-85
2022/02/19 09:32:30;;;;;;;14.73;6.15;;;;;;;19.50;47.37;100637.53;5054065;28;20025;-84
2022/02/19 09:34:56;;;;;;;8.90;5.47;;;;;;;19.28;48.57;100637.66;5036226;28;20029;-85
2022/02/19 09:37:27;;;;;;;15.48;6.65;;;;;;;19.12;49.42;100634.47;5036614;28;20429;-85
2022/02/19 09:39:56;;;;;;;8.40;6.22;;;;;;;19.50;48.14;100631.88;5035920;28;20470;-84
2022/02/19 09:42:23;;;;;;;18.27;7.75;;;;;;;19.06;48.65;100641.78;5036091;28;20048;-84
2022/02/19 09:44:51;;;;;;;14.90;8.50;;;;;;;19.12;48.61;100642.94;5061589;28;20104;-84
2022/02/19 09:47:25;;;;;;;15.70;7.75;;;;;;;19.45;48.19;100640.78;5047963;28;20037;-80
2022/02/19 09:49:55;;;;;;;14.48;8.57;;;;;;;19.64;48.33;100637.44;5055958;28;20036;-82
2022/02/19 09:52:21;;;;;;;15.30;9.23;;;;;;;19.60;48.01;100640.31;5020658;28;20032;-85
2022/02/19 09:54:46;;;;;;;22.40;12.43;;;;;;;19.86;47.26;100638.88;5035646;28;20040;-85
2022/02/19 09:57:13;;;;;;;15.88;8.38;;;;;;;20.23;46.05;100634.53;5035460;28;20024;-84
2022/02/19 09:59:39;;;;;;;17.77;9.50;;;;;;;20.50;45.94;100631.06;5035539;28;20115;-84
2022/02/19 10:02:06;;;;;;;15.80;8.85;;;;;;;20.97;43.45;100634.16;5035458;28;20123;-84
2022/02/19 10:04:33;;;;;;;19.45;7.10;;;;;;;21.40;43.45;100638.03;5035473;28;20029;-83
2022/02/19 10:07:10;;;;;;;13.80;7.47;;;;;;;20.93;44.45;100639.84;5053894;28;20041;-83
2022/02/19 10:09:44;;;;;;;13.23;7.15;;;;;;;21.09;44.46;100650.56;5053088;28;20021;-83
2022/02/19 10:12:14;;;;;;;15.82;7.75;;;;;;;21.68;43.09;100636.84;5035682;28;20502;-83
2022/02/19 10:14:44;;;;;;;9.45;6.68;;;;;;;21.19;43.10;100627.00;5035971;28;20025;-83
2022/02/19 10:17:24;;;;;;;11.65;6.75;;;;;;;21.80;42.45;100632.59;5053475;28;20448;-82
2022/02/19 10:20:03;;;;;;;12.95;6.80;;;;;;;21.46;43.01;100632.69;5035694;28;20442;-84
2022/02/19 10:22:33;;;;;;;13.07;7.80;;;;;;;20.86;44.50;100623.78;5035604;28;20052;-84
2022/02/19 10:25:05;;;;;;;14.00;7.20;;;;;;;20.66;45.06;100634.13;5035391;28;20029;-84
2022/02/19 10:27:44;;;;;;;8.82;3.75;;;;;;;20.53;43.84;100630.22;5035143;28;20025;-84
2022/02/19 10:30:12;;;;;;;14.07;5.25;;;;;;;19.26;47.52;100627.97;5035794;28;20095;-84
2022/02/19 10:32:54;;;;;;;6.07;2.63;;;;;;;20.12;44.21;100623.31;5035371;28;20464;-84
2022/02/19 10:35:30;;;;;;;6.72;2.50;;;;;;;21.12;42.69;100615.78;5035402;28;20112;-83
2022/02/19 10:37:56;;;;;;;6.38;2.50;;;;;;;21.74;41.01;100617.34;5035069;28;20021;-83
2022/02/19 10:40:35;;;;;;;5.35;2.10;;;;;;;22.15;40.04;100614.22;5053309;28;20041;-83
2022/02/19 10:43:05;;;;;;;3.60;2.05;;;;;;;22.44;39.13;100608.84;5053322;28;20104;-83
2022/02/19 10:45:35;;;;;;;4.57;1.40;;;;;;;22.44;38.37;100608.84;5035728;28;20029;-83
2022/02/19 10:48:18;;;;;;;3.85;2.08;;;;;;;22.26;38.68;100602.69;5035398;28;20029;-83
2022/02/19 10:50:47;;;;;;;7.35;2.05;;;;;;;21.77;39.72;100602.28;5035089;28;20060;-83
2022/02/19 10:53:24;;;;;;;4.05;1.50;;;;;;;21.62;39.80;100609.41;5052944;28;20028;-83
2022/02/19 10:55:50;;;;;;;4.80;2.30;;;;;;;21.52;39.84;100604.72;5035074;28;20037;-83
2022/02/19 10:58:17;;;;;;;3.80;1.83;;;;;;;21.72;39.74;100599.94;5038754;28;20025;-83
2022/02/19 11:00:44;;;;;;;8.07;1.83;;;;;;;21.30;40.56;100588.06;5038668;28;20076;-83
2022/02/19 11:03:10;;;;;;;2.72;1.77;;;;;;;21.35;40.11;100579.09;5038638;28;20029;-84
2022/02/19 11:05:36;;;;;;;6.18;2.30;;;;;;;21.13;40.93;100583.44;5039198;28;20040;-83
2022/02/19 11:08:03;;;;;;;5.90;2.05;;;;;;;21.34;39.88;100582.34;5056680;28;20051;-84
2022/02/19 11:10:33;;;;;;;8.20;2.95;;;;;;;20.77;40.81;100566.91;5057374;28;20025;-84
2022/02/19 11:13:00;;;;;;;5.28;2.50;;;;;;;21.26;41.29;100570.31;5039544;28;20116;-84
2022/02/19 11:15:27;;;;;;;9.38;3.38;;;;;;;21.01;42.05;100558.56;5038568;28;20029;-84
2022/02/19 11:17:53;;;;;;;6.10;2.33;;;;;;;20.91;41.54;100554.63;5038475;28;20099;-84
2022/02/19 11:20:22;;;;;;;7.53;3.17;;;;;;;20.93;41.74;100547.34;5038085;28;20557;-84
2022/02/19 11:22:57;;;;;;;9.30;3.15;;;;;;;21.04;41.55;100546.38;5038654;28;20052;-84